Etusivu
METAR-TAF:

METAR-TAF

Lentoasemat :

Harrell Field

Camden, Arkansas, Yhdysvallat

Leveyspiiri: 33-37N, Pituuspiiri: 092-46W, korkeus merenpinnasta: 40 m

Tämänhetkinen sää

Tämä raportti tehtiin 19 minuuttia sitten, kello 16.55 UTC
tyyntä
Lämpötila 14°C
Kosteus 47%
Ilmanpaine 1015 hPa
Näkyvyys: 14.5 km
selkeää

METAR: KCDH 181655Z AUTO 00000KT 9SM CLR 14/03 A2998 RMK AO2

Aika: 11:14 (17:14 UTC)


TAF: puuttuu

Säähavainnot ja -ennusteet yli 4000 lentoasemalta (METAR- ja TAF-raportit).

Käytössä olevat sääasemat on merkitty karttaan keltaisilla ja punaisilla pisteillä.

Aseta hiiri pisteen päälle nähdäksesi sääaseman nimen.

Klikkaa sitten nähdäksesi säähavainnot ja -ennusteet.

Kartan vaihtaminen: klikkaa mustalla rastilla varustettuja vihreitä pisteitä, niin voit zoomata sisään; viivalla varustettua vihreää pistettä, niin voit zoomata ulos tai vihreitä nuolia, niin pääset viereisille kartoille.


METAR-TAF: